createdAt,value
2018-08-30T00:00:20.790Z,54.60
2018-08-30T00:02:49.458Z,54.40
2018-08-30T00:05:18.452Z,54.50
2018-08-30T00:07:46.916Z,54.40
2018-08-30T00:10:15.314Z,54.10
2018-08-30T00:12:44.103Z,54.40
2018-08-30T00:15:12.580Z,54.40
2018-08-30T00:17:40.937Z,54.30
2018-08-30T00:20:09.256Z,54.20
2018-08-30T00:22:37.604Z,54.10
2018-08-30T00:25:05.912Z,53.90
2018-08-30T00:27:34.220Z,53.90
2018-08-30T00:30:02.939Z,53.70
2018-08-30T00:32:31.337Z,53.50
2018-08-30T00:34:59.644Z,53.30
2018-08-30T00:37:27.994Z,53.10
2018-08-30T00:39:56.419Z,53.00
2018-08-30T00:42:25.000Z,52.80
2018-08-30T00:44:54.161Z,52.80
2018-08-30T00:47:22.890Z,52.70
2018-08-30T00:49:52.086Z,52.70
2018-08-30T00:52:21.079Z,52.80
2018-08-30T00:54:49.557Z,52.80
2018-08-30T00:57:18.409Z,53.00
2018-08-30T00:59:47.112Z,52.90
2018-08-30T01:02:15.690Z,53.10
2018-08-30T01:04:44.112Z,53.20
2018-08-30T01:07:12.879Z,53.20
2018-08-30T01:09:41.376Z,53.30
2018-08-30T01:12:09.908Z,53.40
2018-08-30T01:14:38.329Z,53.30
2018-08-30T01:17:06.747Z,54.10
2018-08-30T01:19:35.255Z,54.20
2018-08-30T01:22:03.671Z,53.50
2018-08-30T01:24:33.209Z,53.60
2018-08-30T01:27:02.248Z,53.60
2018-08-30T01:29:30.649Z,54.20
2018-08-30T01:31:59.006Z,53.70
2018-08-30T01:34:27.350Z,53.90
2018-08-30T01:36:55.789Z,53.80
2018-08-30T01:39:24.403Z,53.90
2018-08-30T01:41:52.835Z,53.90
2018-08-30T01:44:21.288Z,54.10
2018-08-30T01:46:49.564Z,54.10
2018-08-30T01:49:17.822Z,54.00
2018-08-30T01:51:46.157Z,54.10
2018-08-30T01:54:14.410Z,54.70
2018-08-30T01:56:42.700Z,54.10
2018-08-30T01:59:11.075Z,53.90
2018-08-30T02:01:39.323Z,54.00
2018-08-30T02:04:07.638Z,53.70
2018-08-30T02:06:35.922Z,53.70
2018-08-30T02:09:05.231Z,53.80
2018-08-30T02:11:33.459Z,53.70
2018-08-30T02:14:01.719Z,53.80
2018-08-30T02:16:30.182Z,53.80
2018-08-30T02:18:58.513Z,53.90
2018-08-30T02:21:26.763Z,54.50
2018-08-30T02:23:55.035Z,54.00
2018-08-30T02:26:23.298Z,54.10
2018-08-30T02:28:51.975Z,54.10
2018-08-30T02:31:20.231Z,54.00
2018-08-30T02:33:48.543Z,54.20
2018-08-30T02:36:16.779Z,54.50
2018-08-30T02:38:45.051Z,54.70
2018-08-30T02:41:13.322Z,54.30
2018-08-30T02:43:41.724Z,54.20
2018-08-30T02:46:09.983Z,54.20
2018-08-30T02:48:38.264Z,54.10
2018-08-30T02:51:06.491Z,53.90
2018-08-30T02:53:34.799Z,53.70
2018-08-30T02:56:03.041Z,53.70
2018-08-30T02:58:31.360Z,53.50
2018-08-30T03:00:59.608Z,53.60
2018-08-30T03:03:27.958Z,53.50
2018-08-30T03:05:56.368Z,53.40
2018-08-30T03:08:24.667Z,53.30
2018-08-30T03:10:52.983Z,53.50
2018-08-30T03:13:21.255Z,53.30
2018-08-30T03:15:49.619Z,53.30
2018-08-30T03:18:17.905Z,53.20
2018-08-30T03:20:46.159Z,53.20
2018-08-30T03:23:14.392Z,53.00
2018-08-30T03:25:42.689Z,53.00
2018-08-30T03:28:11.031Z,52.80
2018-08-30T03:30:39.363Z,52.80
2018-08-30T03:33:07.579Z,52.70
2018-08-30T03:35:35.839Z,52.10
2018-08-30T03:38:04.243Z,52.50
2018-08-30T03:40:32.530Z,52.70
2018-08-30T03:43:00.783Z,52.80
2018-08-30T03:45:29.039Z,52.70
2018-08-30T03:47:57.364Z,52.60
2018-08-30T03:50:25.636Z,52.40
2018-08-30T03:52:54.161Z,52.50
2018-08-30T03:55:22.452Z,52.40
2018-08-30T03:57:50.693Z,52.50
2018-08-30T04:00:18.947Z,52.60
2018-08-30T04:02:47.213Z,52.20
2018-08-30T04:05:15.529Z,52.30
2018-08-30T04:07:43.751Z,52.00
2018-08-30T04:10:12.043Z,51.80
2018-08-30T04:12:40.336Z,51.70
2018-08-30T04:15:08.627Z,51.80
2018-08-30T04:17:36.919Z,51.70
2018-08-30T04:20:05.580Z,52.10
2018-08-30T04:22:33.827Z,51.30
2018-08-30T04:25:02.138Z,51.10
2018-08-30T04:27:30.375Z,51.00
2018-08-30T04:29:58.669Z,51.00
2018-08-30T04:32:26.928Z,51.00
2018-08-30T04:34:55.235Z,50.90
2018-08-30T04:37:23.532Z,51.10
2018-08-30T04:39:51.885Z,51.10
2018-08-30T04:42:20.202Z,51.00
2018-08-30T04:44:48.437Z,51.10
2018-08-30T04:47:16.743Z,51.10
2018-08-30T04:49:45.002Z,51.20
2018-08-30T04:52:13.235Z,51.20
2018-08-30T04:54:41.490Z,51.20
2018-08-30T04:57:09.747Z,51.10
2018-08-30T04:59:38.034Z,51.10
2018-08-30T05:02:06.276Z,51.20
2018-08-30T05:04:34.550Z,51.10
2018-08-30T05:07:02.790Z,51.10
2018-08-30T05:09:31.080Z,50.90
2018-08-30T05:11:59.330Z,50.90
2018-08-30T05:14:27.643Z,50.90
2018-08-30T05:16:55.971Z,50.90
2018-08-30T05:19:24.308Z,50.90
2018-08-30T05:21:52.630Z,50.80
2018-08-30T05:24:20.990Z,50.80
2018-08-30T05:26:49.243Z,50.80
2018-08-30T05:29:17.472Z,50.90
2018-08-30T05:31:45.735Z,50.80
2018-08-30T05:34:13.999Z,50.90
2018-08-30T05:36:42.295Z,51.50
2018-08-30T05:39:10.555Z,50.60
2018-08-30T05:41:38.867Z,50.60
2018-08-30T05:44:07.123Z,50.40
2018-08-30T05:46:35.371Z,50.30
2018-08-30T05:49:03.651Z,50.20
2018-08-30T05:51:31.907Z,50.80
2018-08-30T05:54:00.151Z,50.10
2018-08-30T05:56:28.424Z,49.80
2018-08-30T05:58:56.687Z,49.50
2018-08-30T06:01:25.138Z,49.40
2018-08-30T06:03:53.511Z,49.30
2018-08-30T06:06:21.856Z,49.20
2018-08-30T06:08:50.172Z,49.10
2018-08-30T06:11:18.441Z,49.00
2018-08-30T06:13:46.715Z,49.10
2018-08-30T06:16:15.047Z,49.00
2018-08-30T06:18:43.310Z,49.10
2018-08-30T06:21:11.567Z,49.00
2018-08-30T06:23:39.851Z,49.10
2018-08-30T06:26:08.251Z,49.00
2018-08-30T06:28:36.579Z,48.90
2018-08-30T06:31:04.855Z,48.80
2018-08-30T06:33:33.220Z,48.80
2018-08-30T06:36:01.455Z,48.60
2018-08-30T06:38:29.745Z,48.60
2018-08-30T06:40:58.011Z,48.60
2018-08-30T06:43:26.296Z,48.60
2018-08-30T06:45:54.594Z,48.60
2018-08-30T06:48:22.962Z,48.50
2018-08-30T06:50:51.259Z,48.50
2018-08-30T06:53:19.572Z,48.50
2018-08-30T06:55:47.859Z,48.50
2018-08-30T06:58:16.126Z,48.30
2018-08-30T07:00:44.387Z,48.20
2018-08-30T07:03:12.698Z,48.30
2018-08-30T07:05:41.121Z,48.10
2018-08-30T07:08:09.428Z,48.00
2018-08-30T07:10:37.707Z,47.70
2018-08-30T07:13:06.263Z,47.20
2018-08-30T07:15:34.538Z,47.30
2018-08-30T07:18:02.843Z,47.00
2018-08-30T07:20:31.127Z,46.80
2018-08-30T07:22:59.450Z,46.80
2018-08-30T07:25:27.732Z,46.70
2018-08-30T07:27:56.175Z,46.60
2018-08-30T07:30:24.475Z,46.50
2018-08-30T07:32:52.743Z,46.60
2018-08-30T07:35:20.998Z,46.70
2018-08-30T07:37:49.283Z,46.40
2018-08-30T07:40:17.567Z,46.30
2018-08-30T07:42:45.814Z,46.30
2018-08-30T07:45:14.075Z,46.30
2018-08-30T07:47:42.448Z,45.90
2018-08-30T07:50:10.710Z,46.00
2018-08-30T07:52:38.975Z,46.00
2018-08-30T07:55:07.235Z,45.80
2018-08-30T07:57:35.501Z,45.70
2018-08-30T08:00:04.182Z,45.60
2018-08-30T08:02:32.387Z,45.50
2018-08-30T08:05:00.631Z,45.40
2018-08-30T08:07:28.907Z,45.20
2018-08-30T08:09:57.456Z,45.40
2018-08-30T08:12:25.805Z,45.20
2018-08-30T08:14:54.067Z,45.30
2018-08-30T08:17:22.358Z,45.40
2018-08-30T08:19:50.627Z,45.40
2018-08-30T08:22:18.935Z,45.40
2018-08-30T08:24:47.266Z,45.60
2018-08-30T08:27:15.451Z,45.80
2018-08-30T08:29:43.721Z,45.90
2018-08-30T08:32:11.997Z,45.80
2018-08-30T08:34:40.298Z,45.90
2018-08-30T08:37:08.568Z,46.00
2018-08-30T08:39:37.010Z,46.00
2018-08-30T08:42:05.308Z,46.00
2018-08-30T08:44:33.636Z,46.10
2018-08-30T08:47:01.911Z,45.80
2018-08-30T08:49:30.172Z,45.80
2018-08-30T08:51:58.421Z,45.80
2018-08-30T08:54:26.789Z,45.60
2018-08-30T08:56:55.126Z,45.20
2018-08-30T08:59:23.394Z,44.80
2018-08-30T09:01:51.631Z,44.60
2018-08-30T09:04:19.925Z,44.10
2018-08-30T09:06:48.167Z,44.20
2018-08-30T09:09:16.623Z,43.70
2018-08-30T09:11:44.894Z,43.40
2018-08-30T09:14:13.170Z,43.30
2018-08-30T09:16:41.415Z,43.10
2018-08-30T09:19:09.702Z,42.90
2018-08-30T09:21:38.145Z,42.40
2018-08-30T09:24:06.537Z,42.60
2018-08-30T09:26:35.211Z,42.10
2018-08-30T09:29:03.571Z,41.80
2018-08-30T09:31:31.821Z,41.40
2018-08-30T09:34:00.192Z,41.70
2018-08-30T09:36:28.415Z,41.60
2018-08-30T09:38:56.675Z,41.70
2018-08-30T09:41:24.915Z,41.60
2018-08-30T09:43:53.215Z,41.50
2018-08-30T09:46:21.699Z,41.20
2018-08-30T09:48:50.119Z,40.90
2018-08-30T09:51:18.360Z,40.70
2018-08-30T09:53:46.637Z,40.40
2018-08-30T09:56:14.895Z,40.30
2018-08-30T09:58:43.182Z,40.30
2018-08-30T10:01:16.794Z,40.40
2018-08-30T10:03:45.152Z,40.40
2018-08-30T10:06:13.390Z,40.30
2018-08-30T10:08:41.926Z,40.30
2018-08-30T10:11:10.308Z,40.00
2018-08-30T10:13:38.715Z,39.60
2018-08-30T10:16:07.008Z,39.00
2018-08-30T10:18:35.271Z,38.90
2018-08-30T10:21:03.517Z,38.20
2018-08-30T10:23:31.783Z,37.20
2018-08-30T10:26:00.027Z,35.90
2018-08-30T10:28:28.363Z,34.70
2018-08-30T10:30:56.635Z,33.50
2018-08-30T10:33:24.894Z,32.00
2018-08-30T10:35:53.271Z,31.70
2018-08-30T10:38:21.657Z,30.60
2018-08-30T10:40:49.969Z,30.60
2018-08-30T10:43:18.433Z,30.70
2018-08-30T10:45:46.687Z,31.00
2018-08-30T10:48:14.971Z,31.60
2018-08-30T10:50:43.334Z,32.00
2018-08-30T10:53:11.693Z,32.40
2018-08-30T10:55:39.954Z,32.60
2018-08-30T10:58:08.267Z,33.10
2018-08-30T11:00:36.603Z,33.60
2018-08-30T11:03:04.866Z,34.20
2018-08-30T11:05:33.670Z,35.00
2018-08-30T11:08:02.319Z,34.50
2018-08-30T11:10:30.671Z,33.40
2018-08-30T11:12:59.076Z,31.20
2018-08-30T11:15:27.233Z,30.30
2018-08-30T11:17:55.527Z,29.10
2018-08-30T11:20:23.847Z,28.00
2018-08-30T11:22:52.100Z,26.70
2018-08-30T11:25:20.495Z,25.80
2018-08-30T11:27:48.749Z,25.80
2018-08-30T11:30:16.998Z,24.70
2018-08-30T11:32:45.320Z,25.50
2018-08-30T11:35:13.615Z,24.50
2018-08-30T11:37:43.013Z,24.80
2018-08-30T11:40:11.320Z,24.60
2018-08-30T11:42:39.632Z,24.10
2018-08-30T11:45:08.669Z,23.60
2018-08-30T11:47:36.940Z,23.10
2018-08-30T11:50:06.323Z,23.10
2018-08-30T11:52:34.830Z,23.70
2018-08-30T11:55:03.763Z,24.00
2018-08-30T11:57:32.431Z,24.70
2018-08-30T12:00:08.752Z,25.60
2018-08-30T12:02:47.428Z,26.20
2018-08-30T12:05:29.423Z,26.80
2018-08-30T12:08:31.194Z,27.60
2018-08-30T12:14:12.422Z,27.90
2018-08-30T12:16:50.111Z,27.00
2018-08-30T12:19:39.388Z,25.70
2018-08-30T12:24:56.757Z,24.40
2018-08-30T12:27:25.190Z,24.00
2018-08-30T12:30:05.396Z,24.40
2018-08-30T12:32:43.416Z,24.20
2018-08-30T12:38:13.451Z,23.90
2018-08-30T12:40:45.839Z,24.40
2018-08-30T12:46:08.728Z,24.20
2018-08-30T12:48:55.702Z,24.50
2018-08-30T12:57:25.445Z,25.20
2018-08-30T12:59:56.858Z,26.30
2018-08-30T13:02:39.057Z,25.20
2018-08-30T13:08:04.102Z,22.70
2018-08-30T13:11:17.730Z,21.20
2018-08-30T13:17:01.484Z,18.80
2018-08-30T13:22:19.374Z,17.70
2018-08-30T13:28:58.039Z,15.50
2018-08-30T13:31:32.757Z,15.60
2018-08-30T13:34:12.216Z,15.50
2018-08-30T13:36:54.091Z,16.40
2018-08-30T13:42:35.343Z,18.10
2018-08-30T13:45:13.818Z,19.20
2018-08-30T13:47:51.877Z,18.70
2018-08-30T13:56:20.098Z,17.50
2018-08-30T13:59:02.574Z,18.10
2018-08-30T14:01:40.818Z,19.00
2018-08-30T14:04:15.074Z,19.40
2018-08-30T14:06:55.501Z,19.70
2018-08-30T14:09:36.814Z,20.30
2018-08-30T14:12:14.023Z,20.70
2018-08-30T14:14:50.189Z,21.40
2018-08-30T14:17:32.937Z,22.30
2018-08-30T14:20:13.184Z,22.50
2018-08-30T14:22:55.262Z,22.50
2018-08-30T14:28:54.537Z,21.90
2018-08-30T14:31:36.612Z,21.50
2018-08-30T14:34:23.551Z,21.60
2018-08-30T14:36:58.497Z,21.80
2018-08-30T14:39:31.148Z,22.50
2018-08-30T14:41:59.651Z,22.40
2018-08-30T14:44:27.890Z,22.70
2018-08-30T14:46:56.182Z,23.20
2018-08-30T14:49:24.554Z,23.80
2018-08-30T14:51:52.940Z,24.30
2018-08-30T14:54:21.469Z,24.20
2018-08-30T14:56:51.124Z,25.20
2018-08-30T14:59:19.544Z,24.90
2018-08-30T15:01:48.087Z,25.40
2018-08-30T15:04:16.373Z,25.60
2018-08-30T15:06:44.723Z,25.90
2018-08-30T15:09:13.054Z,25.90
2018-08-30T15:11:41.579Z,25.90
2018-08-30T15:14:09.932Z,26.00
2018-08-30T15:16:38.203Z,26.10
2018-08-30T15:19:10.747Z,26.40
2018-08-30T15:21:50.312Z,25.90
2018-08-30T15:24:42.016Z,26.40
2018-08-30T15:27:13.947Z,26.40
2018-08-30T15:29:43.626Z,26.40
2018-08-30T15:32:15.241Z,26.60
2018-08-30T15:35:02.427Z,26.20
2018-08-30T15:37:46.288Z,26.10
2018-08-30T15:40:28.490Z,26.10
2018-08-30T15:48:31.821Z,26.50
2018-08-30T15:51:25.754Z,27.00
2018-08-30T15:53:57.052Z,26.70
2018-08-30T15:56:27.601Z,27.00
2018-08-30T15:59:06.152Z,27.30
2018-08-30T16:01:51.435Z,27.50
2018-08-30T16:07:12.752Z,28.30
2018-08-30T16:10:12.446Z,28.90
2018-08-30T16:12:56.366Z,29.20
2018-08-30T16:15:33.755Z,29.40
2018-08-30T16:24:12.309Z,29.80
2018-08-30T16:26:51.283Z,30.00
2018-08-30T16:29:24.336Z,30.10
2018-08-30T16:32:01.139Z,30.30
2018-08-30T16:34:40.136Z,30.10
2018-08-30T16:39:52.371Z,29.60
2018-08-30T16:42:20.623Z,29.60
2018-08-30T16:44:48.944Z,29.70
2018-08-30T16:47:17.335Z,29.70
2018-08-30T16:49:45.743Z,29.70
2018-08-30T16:52:14.075Z,29.80
2018-08-30T16:54:42.666Z,29.80
2018-08-30T16:57:11.003Z,29.90
2018-08-30T16:59:39.516Z,29.60
2018-08-30T17:02:07.818Z,29.30
2018-08-30T17:04:36.156Z,30.10
2018-08-30T17:07:04.419Z,29.50
2018-08-30T17:09:32.769Z,29.20
2018-08-30T17:12:01.140Z,29.50
2018-08-30T17:14:29.508Z,29.50
2018-08-30T17:17:05.368Z,29.40
2018-08-30T17:19:37.116Z,29.20
2018-08-30T17:22:05.366Z,29.50
2018-08-30T17:24:45.328Z,29.70
2018-08-30T17:27:24.163Z,29.70
2018-08-30T17:29:59.149Z,30.10
2018-08-30T17:32:32.291Z,30.00
2018-08-30T17:38:04.326Z,31.50
2018-08-30T17:40:35.499Z,31.10
2018-08-30T17:43:11.896Z,31.30
2018-08-30T17:45:44.563Z,31.70
2018-08-30T17:48:15.794Z,31.80
2018-08-30T17:50:48.419Z,31.60
2018-08-30T17:56:09.653Z,31.70
2018-08-30T17:58:49.298Z,31.80
2018-08-30T18:01:25.543Z,31.90
2018-08-30T18:03:57.015Z,32.00
2018-08-30T18:06:25.790Z,32.20
2018-08-30T18:08:54.579Z,32.10
2018-08-30T18:13:04.252Z,32.40
2018-08-30T18:15:37.400Z,32.40
2018-08-30T18:18:12.729Z,32.60
2018-08-30T18:20:45.008Z,32.90
2018-08-30T18:23:17.251Z,32.80
2018-08-30T18:25:56.630Z,32.80
2018-08-30T18:28:30.452Z,32.80
2018-08-30T18:31:02.582Z,32.90
2018-08-30T18:33:45.105Z,32.90
2018-08-30T18:36:22.779Z,32.80
2018-08-30T18:39:05.216Z,32.80
2018-08-30T18:41:37.151Z,32.50
2018-08-30T18:44:09.482Z,32.60
2018-08-30T18:46:44.321Z,33.30
2018-08-30T18:49:16.055Z,32.90
2018-08-30T18:51:47.489Z,32.80
2018-08-30T18:54:35.099Z,32.90
2018-08-30T18:57:03.663Z,32.80
2018-08-30T18:59:41.861Z,32.90
2018-08-30T19:02:21.363Z,32.80
2018-08-30T19:04:49.734Z,32.50
2018-08-30T19:07:18.011Z,32.30
2018-08-30T19:09:46.253Z,32.10
2018-08-30T19:12:14.501Z,31.80
2018-08-30T19:14:42.775Z,31.70
2018-08-30T19:17:16.381Z,31.70
2018-08-30T19:19:44.657Z,32.00
2018-08-30T19:22:12.979Z,31.80
2018-08-30T19:24:46.685Z,32.10
2018-08-30T19:27:15.161Z,32.00
2018-08-30T19:29:48.764Z,31.90
2018-08-30T19:32:17.024Z,32.10
2018-08-30T19:34:45.291Z,31.80
2018-08-30T19:37:13.571Z,31.80
2018-08-30T19:39:41.963Z,31.60
2018-08-30T19:42:10.283Z,31.80
2018-08-30T19:44:38.535Z,31.60
2018-08-30T19:47:06.863Z,32.00
2018-08-30T19:49:35.100Z,31.90
2018-08-30T19:52:03.441Z,31.80
2018-08-30T19:54:31.802Z,32.30
2018-08-30T19:57:00.067Z,32.10
2018-08-30T19:59:36.270Z,33.30
2018-08-30T20:02:12.349Z,33.20
2018-08-30T20:04:45.931Z,32.70
2018-08-30T20:07:21.985Z,33.10
2018-08-30T20:10:07.178Z,32.90
2018-08-30T20:12:45.599Z,32.80
2018-08-30T20:15:16.470Z,32.60
2018-08-30T20:17:54.376Z,32.10
2018-08-30T20:20:24.898Z,32.20
2018-08-30T20:23:01.931Z,32.10
2018-08-30T20:25:30.212Z,32.00
2018-08-30T20:28:06.283Z,31.90
2018-08-30T20:30:36.283Z,31.90
2018-08-30T20:33:04.849Z,31.80
2018-08-30T20:35:37.856Z,31.70
2018-08-30T20:38:06.248Z,31.70
2018-08-30T20:40:34.523Z,31.80
2018-08-30T20:43:03.020Z,31.50
2018-08-30T20:45:31.380Z,31.60
2018-08-30T20:47:59.667Z,31.50
2018-08-30T20:50:27.915Z,31.00
2018-08-30T20:52:56.303Z,31.40
2018-08-30T20:55:24.591Z,31.20
2018-08-30T20:57:52.982Z,31.00
2018-08-30T21:00:21.322Z,31.00
2018-08-30T21:02:49.519Z,31.40
2018-08-30T21:05:17.795Z,31.70
2018-08-30T21:07:46.105Z,31.50
2018-08-30T21:10:14.495Z,31.70
2018-08-30T21:12:42.991Z,31.80
2018-08-30T21:15:11.255Z,31.70
2018-08-30T21:17:39.687Z,31.50
2018-08-30T21:20:08.162Z,31.40
2018-08-30T21:22:36.475Z,31.40
2018-08-30T21:25:04.767Z,31.80
2018-08-30T21:27:33.075Z,31.40
2018-08-30T21:30:01.381Z,31.70
2018-08-30T21:32:29.743Z,31.60
2018-08-30T21:34:57.987Z,31.10
2018-08-30T21:37:26.247Z,31.30
2018-08-30T21:39:54.515Z,31.10
2018-08-30T21:42:22.803Z,31.10
2018-08-30T21:44:51.040Z,31.00
2018-08-30T21:47:19.303Z,31.10
2018-08-30T21:49:47.550Z,31.00
2018-08-30T21:52:15.903Z,31.30
2018-08-30T21:54:44.189Z,31.20
2018-08-30T21:57:12.491Z,31.60
2018-08-30T21:59:40.812Z,31.40
2018-08-30T22:02:09.117Z,31.80
2018-08-30T22:04:37.387Z,31.70
2018-08-30T22:07:05.743Z,31.60
2018-08-30T22:09:33.998Z,31.50
2018-08-30T22:12:02.281Z,31.80
2018-08-30T22:14:31.212Z,31.70
2018-08-30T22:16:59.771Z,31.70
2018-08-30T22:19:28.140Z,32.00
2018-08-30T22:21:56.527Z,31.70
2018-08-30T22:24:24.787Z,31.70
2018-08-30T22:26:53.066Z,32.00
2018-08-30T22:29:21.430Z,32.00
2018-08-30T22:31:49.708Z,32.20
2018-08-30T22:34:17.963Z,32.50
2018-08-30T22:36:46.211Z,32.10
2018-08-30T22:39:14.634Z,32.80
2018-08-30T22:41:42.958Z,32.30
2018-08-30T22:44:11.244Z,32.00
2018-08-30T22:46:39.541Z,32.20
2018-08-30T22:49:07.852Z,32.00
2018-08-30T22:51:36.347Z,32.20
2018-08-30T22:54:05.229Z,32.40
2018-08-30T22:56:33.535Z,32.10
2018-08-30T22:59:01.847Z,32.20
2018-08-30T23:01:30.092Z,32.50
2018-08-30T23:03:58.363Z,32.40
2018-08-30T23:06:26.608Z,32.40
2018-08-30T23:08:54.868Z,33.00
2018-08-30T23:11:23.194Z,32.20
2018-08-30T23:13:51.475Z,32.70
2018-08-30T23:16:19.778Z,32.50
2018-08-30T23:18:48.055Z,32.60
2018-08-30T23:21:16.601Z,32.40
2018-08-30T23:23:44.863Z,32.50
2018-08-30T23:26:13.139Z,32.60
2018-08-30T23:28:41.410Z,32.50
2018-08-30T23:31:09.652Z,32.70
2018-08-30T23:33:37.912Z,32.80
2018-08-30T23:36:06.405Z,33.10
2018-08-30T23:38:34.752Z,32.80
2018-08-30T23:41:03.043Z,33.20
2018-08-30T23:43:31.328Z,33.10
2018-08-30T23:45:59.585Z,33.20
2018-08-30T23:48:27.922Z,33.50
2018-08-30T23:50:56.318Z,33.70
2018-08-30T23:53:24.920Z,33.60
2018-08-30T23:55:53.291Z,33.60
2018-08-30T23:58:33.062Z,33.50
